createdAt,value
2022-08-05T00:00:21.856Z,99405.28
2022-08-05T00:02:51.309Z,99244.28
2022-08-05T00:06:01.506Z,99444.75
2022-08-05T00:08:32.990Z,99543.66
2022-08-05T00:11:00.950Z,99509.47
2022-08-05T00:13:38.121Z,99554.78
2022-08-05T00:16:12.307Z,99494.06
2022-08-05T00:18:42.145Z,99443.81
2022-08-05T00:21:10.116Z,99531.75
2022-08-05T00:23:45.881Z,99355.78
2022-08-05T00:26:16.486Z,99539.31
2022-08-05T00:28:45.900Z,99568.03
2022-08-05T00:31:15.273Z,99449.91
2022-08-05T00:34:55.705Z,99511.84
2022-08-05T00:37:12.873Z,99378.03
2022-08-05T00:39:18.956Z,99540.94
2022-08-05T00:41:55.655Z,99517.50
2022-08-05T00:44:30.656Z,99334.53
2022-08-05T00:47:04.086Z,99518.91
2022-08-05T00:49:50.979Z,99529.25
2022-08-05T00:52:28.297Z,99531.13
2022-08-05T00:54:56.893Z,99549.72
2022-08-05T00:57:38.130Z,99513.41
2022-08-05T01:00:14.888Z,99554.78
2022-08-05T01:02:47.995Z,99377.38
2022-08-05T01:05:18.133Z,99383.34
2022-08-05T01:08:41.364Z,99376.84
2022-08-05T01:10:38.132Z,99517.97
2022-08-05T01:13:13.342Z,99484.66
2022-08-05T01:15:55.176Z,99525.75
2022-08-05T01:18:30.755Z,99526.16
2022-08-05T01:21:04.639Z,99539.66
2022-08-05T01:23:42.511Z,99551.34
2022-08-05T01:26:29.799Z,99512.72
2022-08-05T01:29:05.244Z,99539.66
2022-08-05T01:31:42.785Z,99535.59
2022-08-05T01:34:14.995Z,99476.47
2022-08-05T01:36:47.750Z,99366.09
2022-08-05T01:39:46.798Z,99464.66
2022-08-05T01:42:04.966Z,99482.00
2022-08-05T01:44:35.485Z,99549.31
2022-08-05T01:47:05.310Z,99272.06
2022-08-05T01:49:42.819Z,99443.03
2022-08-05T01:52:22.600Z,99467.97
2022-08-05T01:54:52.779Z,99439.81
2022-08-05T01:58:12.154Z,99482.63
2022-08-05T02:00:14.091Z,99526.63
2022-08-05T02:02:51.189Z,99546.75
2022-08-05T02:05:23.575Z,99557.34
2022-08-05T02:08:00.233Z,99648.47
2022-08-05T02:10:32.154Z,99581.75
2022-08-05T02:13:04.688Z,99345.00
2022-08-05T02:15:43.259Z,99516.94
2022-08-05T02:18:31.018Z,99608.75
2022-08-05T02:21:04.777Z,99261.00
2022-08-05T02:23:35.741Z,99380.09
2022-08-05T02:26:04.499Z,99567.88
2022-08-05T02:28:38.115Z,99471.88
2022-08-05T02:31:14.462Z,99619.13
2022-08-05T02:34:00.634Z,99624.38
2022-08-05T02:36:31.463Z,99669.88
2022-08-05T02:39:16.551Z,99533.19
2022-08-05T02:42:01.307Z,99477.16
2022-08-05T02:44:29.764Z,99402.69
2022-08-05T02:47:00.716Z,99653.81
2022-08-05T02:49:35.833Z,99528.47
2022-08-05T02:52:06.712Z,99511.31
2022-08-05T02:54:37.149Z,99649.13
2022-08-05T02:57:10.159Z,99703.91
2022-08-05T02:59:55.246Z,99685.94
2022-08-05T03:02:27.732Z,99588.06
2022-08-05T03:04:56.007Z,99379.78
2022-08-05T03:08:00.331Z,99467.06
2022-08-05T03:10:13.398Z,99637.34
2022-08-05T03:12:41.386Z,99747.16
2022-08-05T03:15:12.363Z,99478.22
2022-08-05T03:17:44.859Z,99484.94
2022-08-05T03:20:13.501Z,99602.94
2022-08-05T03:22:44.281Z,99692.47
2022-08-05T03:25:33.114Z,99181.13
2022-08-05T03:28:02.972Z,99313.84
2022-08-05T03:30:33.757Z,99477.44
2022-08-05T03:33:03.993Z,99513.28
2022-08-05T03:35:40.906Z,99530.69
2022-08-05T03:38:09.899Z,99540.88
2022-08-05T03:40:41.381Z,99452.47
2022-08-05T03:43:58.868Z,99412.84
2022-08-05T03:46:01.453Z,99497.44
2022-08-05T03:48:30.877Z,99521.34
2022-08-05T03:52:37.444Z,99558.84
2022-08-05T03:55:34.326Z,99627.19
2022-08-05T03:56:47.193Z,99589.66
2022-08-05T03:59:20.332Z,99660.94
2022-08-05T04:01:49.426Z,99503.81
2022-08-05T04:04:21.255Z,99573.47
2022-08-05T04:06:51.159Z,99560.41
2022-08-05T04:09:20.435Z,99512.78
2022-08-05T04:11:56.784Z,99436.75
2022-08-05T04:14:30.513Z,99561.56
2022-08-05T04:16:59.679Z,99476.59
2022-08-05T04:19:29.142Z,99673.81
2022-08-05T04:22:10.358Z,99629.81
2022-08-05T04:24:44.083Z,99556.63
2022-08-05T04:27:13.121Z,99577.09
2022-08-05T04:29:41.260Z,99398.44
2022-08-05T04:32:09.646Z,99511.94
2022-08-05T04:34:42.868Z,99459.72
2022-08-05T04:37:11.305Z,99519.31
2022-08-05T04:39:40.116Z,99412.09
2022-08-05T04:42:09.200Z,99492.44
2022-08-05T04:44:37.141Z,99576.41
2022-08-05T04:47:08.660Z,99430.84
2022-08-05T04:50:06.533Z,99546.00
2022-08-05T04:52:29.416Z,99605.06
2022-08-05T04:55:13.931Z,99593.19
2022-08-05T04:57:54.275Z,99509.22
2022-08-05T05:00:23.671Z,99487.69
2022-08-05T05:02:52.021Z,99566.66
2022-08-05T05:05:28.967Z,99566.47
2022-08-05T05:08:01.627Z,99661.28
2022-08-05T05:13:04.563Z,99637.91
2022-08-05T05:15:56.185Z,99638.66
2022-08-05T05:18:31.581Z,99563.06
2022-08-05T05:21:04.329Z,99611.25
2022-08-05T05:23:50.337Z,99598.97
2022-08-05T05:26:28.583Z,99548.59
2022-08-05T05:29:02.391Z,99605.91
2022-08-05T05:34:01.912Z,99623.84
2022-08-05T05:36:32.188Z,99641.38
2022-08-05T05:39:00.264Z,99648.34
2022-08-05T05:41:39.994Z,99650.16
2022-08-05T05:44:35.777Z,99644.94
2022-08-05T05:46:58.034Z,99624.03
2022-08-05T05:49:26.390Z,99655.13
2022-08-05T05:51:56.011Z,99643.38
2022-08-05T05:54:35.035Z,99642.34
2022-08-05T05:57:13.821Z,99641.06
2022-08-05T05:59:47.853Z,99625.63
2022-08-05T06:02:31.027Z,99634.31
2022-08-05T06:05:01.292Z,99642.69
2022-08-05T06:07:41.994Z,99647.53
2022-08-05T06:10:21.021Z,99636.63
2022-08-05T06:12:51.602Z,99624.06
2022-08-05T06:15:23.915Z,99628.50
2022-08-05T06:17:54.575Z,99630.66
2022-08-05T06:20:23.136Z,99631.44
2022-08-05T06:22:52.740Z,99616.75
2022-08-05T06:25:59.741Z,99631.44
2022-08-05T06:28:12.855Z,99633.75
2022-08-05T06:30:49.231Z,99644.56
2022-08-05T06:33:33.320Z,99644.91
2022-08-05T06:36:10.792Z,99644.81
2022-08-05T06:38:40.532Z,99646.84
2022-08-05T06:41:15.053Z,99640.19
2022-08-05T06:43:57.868Z,99675.88
2022-08-05T06:46:29.815Z,99685.78
2022-08-05T06:48:59.033Z,99687.72
2022-08-05T06:51:29.999Z,99689.00
2022-08-05T06:54:00.424Z,99692.19
2022-08-05T06:56:30.387Z,99673.66
2022-08-05T06:59:02.588Z,99698.16
2022-08-05T07:01:32.363Z,99689.09
2022-08-05T07:04:01.486Z,99672.66
2022-08-05T07:06:31.966Z,99696.47
2022-08-05T07:09:03.754Z,99703.53
2022-08-05T07:11:33.070Z,99703.81
2022-08-05T07:14:29.625Z,99707.78
2022-08-05T07:18:08.749Z,99691.66
2022-08-05T07:20:34.107Z,99710.00
2022-08-05T07:22:38.659Z,99709.13
2022-08-05T07:25:23.339Z,99707.53
2022-08-05T07:28:03.751Z,99682.28
2022-08-05T07:30:38.965Z,99725.56
2022-08-05T07:33:09.451Z,99750.91
2022-08-05T07:36:02.709Z,99726.06
2022-08-05T07:38:32.305Z,99717.78
2022-08-05T07:42:08.921Z,99738.50
2022-08-05T07:43:55.081Z,99719.50
2022-08-05T07:46:26.249Z,99749.19
2022-08-05T07:49:02.125Z,99747.56
2022-08-05T07:51:36.352Z,99745.63
2022-08-05T07:54:08.364Z,99745.94
2022-08-05T07:57:01.197Z,99742.59
2022-08-05T07:59:38.886Z,99728.97
2022-08-05T08:02:15.364Z,99757.97
2022-08-05T08:04:46.375Z,99763.50
2022-08-05T08:07:15.222Z,99774.19
2022-08-05T08:09:43.702Z,99782.31
2022-08-05T08:12:37.548Z,99781.63
2022-08-05T08:15:02.074Z,99789.16
2022-08-05T08:17:31.453Z,99790.78
2022-08-05T08:20:23.030Z,99781.41
2022-08-05T08:22:52.500Z,99797.44
2022-08-05T08:25:26.810Z,99786.28
2022-08-05T08:28:18.185Z,99813.97
2022-08-05T08:30:47.371Z,99771.19
2022-08-05T08:33:19.232Z,99820.81
2022-08-05T08:35:53.959Z,99806.09
2022-08-05T08:38:37.725Z,99803.50
2022-08-05T08:41:07.302Z,99805.34
2022-08-05T08:45:20.312Z,99837.66
2022-08-05T08:46:26.007Z,99827.44
2022-08-05T08:49:06.134Z,99840.13
2022-08-05T08:52:02.929Z,99845.13
2022-08-05T08:54:31.452Z,99843.75
2022-08-05T08:57:00.454Z,99854.78
2022-08-05T08:59:33.604Z,99854.56
2022-08-05T09:02:02.142Z,99861.94
2022-08-05T09:04:30.979Z,99864.03
2022-08-05T09:07:10.633Z,99826.84
2022-08-05T09:09:48.476Z,99882.97
2022-08-05T09:12:30.035Z,99878.81
2022-08-05T09:15:05.684Z,99880.38
2022-08-05T09:17:41.171Z,99899.50
2022-08-05T09:20:12.613Z,99902.31
2022-08-05T09:23:07.791Z,99904.13
2022-08-05T09:26:03.068Z,99906.19
2022-08-05T09:28:31.555Z,99911.44
2022-08-05T09:31:22.173Z,99912.97
2022-08-05T09:33:54.827Z,99914.69
2022-08-05T09:36:55.774Z,99910.97
2022-08-05T09:39:41.414Z,99896.19
2022-08-05T09:42:24.522Z,99919.16
2022-08-05T09:45:03.267Z,99920.94
2022-08-05T09:47:55.841Z,99887.72
2022-08-05T09:50:50.193Z,99919.44
2022-08-05T09:53:26.230Z,99927.25
2022-08-05T09:56:13.334Z,99922.09
2022-08-05T09:58:41.881Z,99905.38
2022-08-05T10:01:31.579Z,99900.34
2022-08-05T10:04:04.554Z,99882.44
2022-08-05T10:06:40.474Z,99934.66
2022-08-05T10:09:27.556Z,99925.72
2022-08-05T10:11:56.431Z,99943.69
2022-08-05T10:14:27.276Z,99937.53
2022-08-05T10:16:58.899Z,99951.56
2022-08-05T10:20:03.100Z,99954.66
2022-08-05T10:22:29.965Z,99957.47
2022-08-05T10:25:02.828Z,99967.19
2022-08-05T10:28:13.662Z,99967.06
2022-08-05T10:32:03.042Z,99958.22
2022-08-05T10:33:14.684Z,99954.38
2022-08-05T10:35:45.970Z,99970.59
2022-08-05T10:38:15.514Z,99921.50
2022-08-05T10:40:47.516Z,99972.69
2022-08-05T10:43:35.879Z,99982.16
2022-08-05T10:46:06.318Z,99946.59
2022-08-05T10:48:52.365Z,100002.13
2022-08-05T10:51:29.107Z,100005.50
2022-08-05T10:54:01.079Z,100015.16
2022-08-05T10:56:45.920Z,100010.16
2022-08-05T11:00:02.570Z,100020.53
2022-08-05T11:02:14.546Z,100007.91
2022-08-05T11:04:58.829Z,100016.28
2022-08-05T11:08:02.476Z,100030.03
2022-08-05T11:10:27.178Z,99999.63
2022-08-05T11:12:56.078Z,100031.63
2022-08-05T11:16:01.392Z,100034.16
2022-08-05T11:18:26.755Z,100038.19
2022-08-05T11:20:55.044Z,100037.31
2022-08-05T11:24:05.259Z,100035.19
2022-08-05T11:26:28.815Z,100047.34
2022-08-05T11:29:11.665Z,100015.75
2022-08-05T11:31:57.072Z,100045.75
2022-08-05T11:34:51.169Z,100060.25
2022-08-05T11:38:37.360Z,100053.00
2022-08-05T11:41:36.878Z,100060.94
2022-08-05T11:44:05.782Z,100052.47
2022-08-05T11:46:37.592Z,100037.72
2022-08-05T11:49:07.976Z,100045.63
2022-08-05T11:51:44.237Z,100045.03
2022-08-05T11:54:24.516Z,100054.31
2022-08-05T11:57:08.459Z,100043.25
2022-08-05T11:59:52.435Z,100051.91
2022-08-05T12:02:32.012Z,100050.38
2022-08-05T12:05:01.118Z,100043.06
2022-08-05T12:08:10.499Z,100065.69
2022-08-05T12:10:23.088Z,100024.50
2022-08-05T12:12:59.374Z,100047.50
2022-08-05T12:15:37.825Z,100052.41
2022-08-05T12:18:10.566Z,100045.56
2022-08-05T12:20:40.622Z,100052.94
2022-08-05T12:23:10.095Z,100053.25
2022-08-05T12:25:50.622Z,100061.09
2022-08-05T12:28:33.611Z,100055.19
2022-08-05T12:31:02.629Z,100055.19
2022-08-05T12:33:36.620Z,100065.38
2022-08-05T12:36:08.448Z,100020.53
2022-08-05T12:38:38.089Z,100073.06
2022-08-05T12:41:13.322Z,100073.53
2022-08-05T12:43:58.020Z,100079.88
2022-08-05T12:46:28.899Z,100081.84
2022-08-05T12:49:01.759Z,100053.72
2022-08-05T12:52:13.618Z,100057.41
2022-08-05T12:54:36.792Z,100072.34
2022-08-05T12:57:09.589Z,100083.25
2022-08-05T13:01:57.150Z,100093.91
2022-08-05T13:02:37.349Z,100092.44
2022-08-05T13:05:08.580Z,100104.94
2022-08-05T13:07:59.363Z,100098.19
2022-08-05T13:10:28.648Z,100101.50
2022-08-05T13:12:58.507Z,100104.09
2022-08-05T13:15:41.275Z,100096.59
2022-08-05T13:18:18.830Z,100102.31
2022-08-05T13:20:49.002Z,100111.22
2022-08-05T13:23:18.037Z,100104.97
2022-08-05T13:25:52.057Z,100112.25
2022-08-05T13:28:27.714Z,100113.97
2022-08-05T13:30:57.357Z,100115.34
2022-08-05T13:34:22.358Z,100116.72
2022-08-05T13:36:14.624Z,100120.25
2022-08-05T13:38:43.298Z,100115.38
2022-08-05T13:41:11.848Z,100120.47
2022-08-05T13:43:45.858Z,100138.34
2022-08-05T13:46:43.761Z,100130.59
2022-08-05T13:49:12.917Z,100142.81
2022-08-05T13:51:46.678Z,100153.56
2022-08-05T13:54:15.960Z,100149.06
2022-08-05T13:56:50.850Z,100110.03
2022-08-05T13:59:21.360Z,100150.97
2022-08-05T14:01:57.968Z,100142.84
2022-08-05T14:04:49.858Z,100142.44
2022-08-05T14:07:55.705Z,100152.78
2022-08-05T14:10:08.849Z,100143.00
2022-08-05T14:12:36.840Z,100156.06
2022-08-05T14:16:03.924Z,100114.03
2022-08-05T14:17:55.096Z,100155.03
2022-08-05T14:20:27.780Z,100161.50
2022-08-05T14:22:56.014Z,100163.78
2022-08-05T14:25:28.036Z,100158.13
2022-08-05T14:27:56.652Z,100168.88
2022-08-05T14:30:29.912Z,100169.84
2022-08-05T14:32:59.506Z,100170.94
2022-08-05T14:35:36.212Z,100162.88
2022-08-05T14:38:32.216Z,100163.78
2022-08-05T14:41:05.795Z,100165.53
2022-08-05T14:44:00.122Z,100164.69
2022-08-05T14:46:28.846Z,100169.06
2022-08-05T14:49:06.441Z,100175.59
2022-08-05T14:51:35.804Z,100170.22
2022-08-05T14:54:27.411Z,100162.41
2022-08-05T14:56:51.931Z,100169.56
2022-08-05T14:59:22.739Z,100178.13
2022-08-05T15:01:51.078Z,100180.09
2022-08-05T15:04:22.346Z,100174.44
2022-08-05T15:06:51.250Z,100184.22
2022-08-05T15:09:50.654Z,100173.34
2022-08-05T15:12:09.099Z,100169.06
2022-08-05T15:14:48.213Z,100161.56
2022-08-05T15:17:46.749Z,100181.56
2022-08-05T15:20:13.434Z,100178.59
2022-08-05T15:22:52.286Z,100180.63
2022-08-05T15:25:51.570Z,100173.75
2022-08-05T15:28:14.269Z,100174.09
2022-08-05T15:30:43.360Z,100166.19
2022-08-05T15:33:11.864Z,100128.91
2022-08-05T15:35:45.331Z,100174.09
2022-08-05T15:38:33.732Z,100179.59
2022-08-05T15:41:22.507Z,100155.38
2022-08-05T15:43:49.742Z,100183.44
2022-08-05T15:46:18.182Z,100182.28
2022-08-05T15:48:58.961Z,100181.44
2022-08-05T15:52:12.756Z,100180.31
2022-08-05T15:54:19.085Z,100168.69
2022-08-05T15:56:47.102Z,100177.44
2022-08-05T15:59:20.243Z,100123.44
2022-08-05T16:01:52.982Z,100175.91
2022-08-05T16:04:25.673Z,100167.56
2022-08-05T16:06:55.925Z,100176.59
2022-08-05T16:09:24.460Z,100134.13
2022-08-05T16:11:53.893Z,100185.41
2022-08-05T16:14:22.618Z,100196.72
2022-08-05T16:16:50.900Z,100187.41
2022-08-05T16:20:03.655Z,100183.78
2022-08-05T16:22:10.568Z,100150.63
2022-08-05T16:24:40.322Z,100186.94
2022-08-05T16:27:15.930Z,100194.47
2022-08-05T16:29:50.429Z,100196.31
2022-08-05T16:32:28.584Z,100201.81
2022-08-05T16:34:58.739Z,100214.72
2022-08-05T16:38:02.276Z,100214.00
2022-08-05T16:40:28.627Z,100211.53
2022-08-05T16:42:58.001Z,100233.41
2022-08-05T16:46:02.941Z,100230.06
2022-08-05T16:48:25.796Z,100237.22
2022-08-05T16:51:02.054Z,100179.38
2022-08-05T16:54:03.948Z,100225.59
2022-08-05T16:56:21.544Z,100247.53
2022-08-05T16:58:51.256Z,100241.81
2022-08-05T17:01:19.682Z,100227.47
2022-08-05T17:03:47.971Z,100252.94
2022-08-05T17:06:16.737Z,100250.38
2022-08-05T17:08:53.528Z,100241.31
2022-08-05T17:11:23.930Z,100263.03
2022-08-05T17:14:00.663Z,100270.22
2022-08-05T17:16:36.358Z,100228.56
2022-08-05T17:19:07.294Z,100276.16
2022-08-05T17:21:36.900Z,100265.06
2022-08-05T17:24:19.487Z,100303.56
2022-08-05T17:27:46.557Z,100345.72
2022-08-05T17:30:18.984Z,100329.88
2022-08-05T17:32:47.470Z,100234.91
2022-08-05T17:35:20.666Z,100171.50
2022-08-05T17:37:49.179Z,100077.22
2022-08-05T17:40:22.427Z,100285.13
2022-08-05T17:42:51.919Z,100197.66
2022-08-05T17:45:22.202Z,100205.88
2022-08-05T17:47:54.529Z,100211.75
2022-08-05T17:50:28.235Z,100196.97
2022-08-05T17:52:59.092Z,100224.19
2022-08-05T17:55:34.404Z,100315.88
2022-08-05T17:58:07.000Z,100216.56
2022-08-05T18:00:44.246Z,100275.50
2022-08-05T18:03:12.779Z,100240.47
2022-08-05T18:05:56.295Z,100269.63
2022-08-05T18:08:29.790Z,100120.53
2022-08-05T18:10:59.606Z,100323.41
2022-08-05T18:13:27.506Z,100326.34
2022-08-05T18:16:05.400Z,100325.72
2022-08-05T18:18:39.802Z,100172.84
2022-08-05T18:21:13.095Z,100296.03
2022-08-05T18:23:47.779Z,100306.69
2022-08-05T18:26:18.095Z,100257.41
2022-08-05T18:28:46.857Z,100300.78
2022-08-05T18:31:16.051Z,100141.03
2022-08-05T18:33:47.328Z,100400.47
2022-08-05T18:36:19.530Z,100160.97
2022-08-05T18:38:47.529Z,100180.13
2022-08-05T18:41:53.691Z,100222.19
2022-08-05T18:44:07.844Z,100333.72
2022-08-05T18:46:36.785Z,100283.84
2022-08-05T18:49:18.486Z,100289.38
2022-08-05T18:52:08.654Z,100291.22
2022-08-05T18:54:37.119Z,100261.94
2022-08-05T18:57:15.138Z,100178.00
2022-08-05T19:00:01.754Z,100315.19
2022-08-05T19:02:31.458Z,100146.41
2022-08-05T19:05:02.500Z,100405.44
2022-08-05T19:07:50.092Z,100219.66
2022-08-05T19:10:18.244Z,100215.78
2022-08-05T19:12:55.960Z,100121.31
2022-08-05T19:15:57.766Z,100450.34
2022-08-05T19:18:13.533Z,100204.69
2022-08-05T19:20:51.560Z,100289.44
2022-08-05T19:24:03.905Z,100207.69
2022-08-05T19:26:08.497Z,100267.03
2022-08-05T19:28:43.104Z,100417.63
2022-08-05T19:31:13.489Z,100100.06
2022-08-05T19:33:48.687Z,100298.84
2022-08-05T19:36:24.833Z,100391.34
2022-08-05T19:38:52.843Z,100456.25
2022-08-05T19:41:22.022Z,100513.47
2022-08-05T19:44:13.043Z,100453.28
2022-08-05T19:46:43.761Z,100178.63
2022-08-05T19:49:16.509Z,100443.28
2022-08-05T19:52:05.975Z,100390.16
2022-08-05T19:54:34.070Z,100404.59
2022-08-05T19:57:08.667Z,100408.66
2022-08-05T19:59:59.352Z,100319.63
2022-08-05T20:02:31.325Z,100339.19
2022-08-05T20:04:59.964Z,100483.53
2022-08-05T20:07:46.323Z,100204.81
2022-08-05T20:10:16.393Z,100433.97
2022-08-05T20:12:47.741Z,100490.44
2022-08-05T20:15:23.129Z,100256.84
2022-08-05T20:18:10.205Z,100458.44
2022-08-05T20:20:55.119Z,100573.66
2022-08-05T20:23:23.932Z,100505.44
2022-08-05T20:26:09.150Z,100444.69
2022-08-05T20:28:44.768Z,100563.50
2022-08-05T20:31:14.242Z,100512.13
2022-08-05T20:33:45.357Z,100519.44
2022-08-05T20:36:14.322Z,100431.19
2022-08-05T20:38:53.350Z,100374.13
2022-08-05T20:41:27.152Z,100198.78
2022-08-05T20:44:18.926Z,100447.19
2022-08-05T20:47:00.092Z,100553.13
2022-08-05T20:49:28.305Z,100565.66
2022-08-05T20:51:57.362Z,100417.66
2022-08-05T20:54:59.738Z,100659.91
2022-08-05T20:57:24.807Z,100539.47
2022-08-05T21:00:21.065Z,100467.63
2022-08-05T21:03:01.345Z,100496.63
2022-08-05T21:05:48.199Z,100553.97
2022-08-05T21:08:26.699Z,100586.03
2022-08-05T21:11:09.957Z,100284.84
2022-08-05T21:13:48.262Z,100495.69
2022-08-05T21:16:29.963Z,100539.31
2022-08-05T21:19:01.393Z,100617.66
2022-08-05T21:21:39.414Z,100378.28
2022-08-05T21:24:15.913Z,100513.16
2022-08-05T21:26:53.156Z,100737.75
2022-08-05T21:29:23.421Z,100480.56
2022-08-05T21:31:54.703Z,100320.44
2022-08-05T21:34:26.606Z,100454.59
2022-08-05T21:36:57.653Z,100577.78
2022-08-05T21:39:28.078Z,100201.75
2022-08-05T21:42:02.169Z,100517.84
2022-08-05T21:44:31.666Z,100477.28
2022-08-05T21:47:00.371Z,100460.94
2022-08-05T21:49:48.674Z,100457.75
2022-08-05T21:52:27.319Z,100619.41
2022-08-05T21:54:56.573Z,100427.75
2022-08-05T21:57:32.624Z,100483.75
2022-08-05T22:00:06.050Z,100626.06
2022-08-05T22:02:35.123Z,100374.59
2022-08-05T22:05:04.921Z,100327.94
2022-08-05T22:07:39.864Z,100637.91
2022-08-05T22:10:25.602Z,100297.94
2022-08-05T22:12:57.085Z,100621.22
2022-08-05T22:16:01.061Z,100416.22
2022-08-05T22:18:14.477Z,100233.81
2022-08-05T22:20:44.219Z,100501.50
2022-08-05T22:24:03.094Z,100403.69
2022-08-05T22:26:36.901Z,100506.81
2022-08-05T22:29:05.130Z,100468.31
2022-08-05T22:31:44.564Z,100238.94
2022-08-05T22:34:20.023Z,100515.72
2022-08-05T22:36:55.178Z,100392.88
2022-08-05T22:39:24.084Z,100337.59
2022-08-05T22:42:10.421Z,100546.59
2022-08-05T22:44:42.532Z,100229.97
2022-08-05T22:47:29.725Z,100402.13
2022-08-05T22:50:20.227Z,100469.63
2022-08-05T22:52:51.367Z,100565.72
2022-08-05T22:55:21.148Z,100498.78
2022-08-05T22:57:49.994Z,100635.63
2022-08-05T23:00:20.748Z,100434.75
2022-08-05T23:02:49.700Z,100642.00
2022-08-05T23:05:18.358Z,100566.84
2022-08-05T23:07:49.656Z,100419.38
2022-08-05T23:10:20.865Z,100562.78
2022-08-05T23:12:54.528Z,100656.53
2022-08-05T23:15:26.945Z,100677.78
2022-08-05T23:18:00.551Z,100533.59
2022-08-05T23:20:29.800Z,100728.41
2022-08-05T23:22:58.798Z,100664.88
2022-08-05T23:25:52.053Z,100578.75
2022-08-05T23:28:17.255Z,100683.63
2022-08-05T23:30:53.751Z,100385.03
2022-08-05T23:34:02.662Z,100555.63
2022-08-05T23:36:13.853Z,100442.63
2022-08-05T23:38:43.771Z,100652.94
2022-08-05T23:41:14.123Z,100479.03
2022-08-05T23:44:06.250Z,100500.78
2022-08-05T23:46:37.429Z,100607.19
2022-08-05T23:49:15.785Z,100706.75
2022-08-05T23:52:01.851Z,100537.66
2022-08-05T23:54:36.436Z,100735.56
2022-08-05T23:57:08.039Z,100653.22
2022-08-05T23:59:37.741Z,100330.41
